Terminal Aerodrome Forecast
Issued by NWS

Home | Current Version | Previous Version | Text Only | Print | Product List | Glossary On
Versions: 1 2 3 4 5 6 7 8 9 10 11 12 13 14 15 16 17
000
FTUS43 KDTX 061744
TAFMBS
TAF
KMBS 061744Z 0618/0718 22013G20KT P6SM BKN250
     FM062300 22010KT P6SM SCT025 BKN040 OVC120
     FM070300 24010KT P6SM OVC020
     FM071600 24013G20KT P6SM BKN025 OVC040=

USA.gov is the U.S. government's official web portal to all federal, state and local government web resources and services.